createdAt,value
2022-09-03T08:40:25.635Z,24.49
2022-09-03T08:42:52.007Z,24.55
2022-09-03T08:45:18.364Z,24.75
2022-09-03T08:47:44.736Z,24.66
2022-09-03T08:50:11.145Z,24.91
2022-09-03T08:52:37.546Z,25.24
2022-09-03T08:55:03.904Z,25.41
2022-09-03T08:57:30.277Z,25.79
2022-09-03T08:59:56.688Z,25.73
2022-09-03T09:02:23.178Z,25.47
2022-09-03T09:04:49.445Z,25.25
2022-09-03T09:07:15.895Z,25.52
2022-09-03T09:09:42.289Z,25.85
2022-09-03T09:12:08.753Z,26.06
2022-09-03T09:14:35.135Z,25.95
2022-09-03T09:17:01.501Z,25.90
2022-09-03T09:19:27.923Z,25.74
2022-09-03T09:21:54.362Z,25.78
2022-09-03T09:24:20.752Z,25.79
2022-09-03T09:26:47.154Z,25.86
2022-09-03T09:29:13.517Z,26.22
2022-09-03T09:31:40.009Z,26.33
2022-09-03T09:34:06.281Z,26.45
2022-09-03T09:36:32.651Z,26.15
2022-09-03T09:38:59.113Z,26.77
2022-09-03T09:41:29.650Z,27.02
2022-09-03T09:43:51.858Z,27.12
2022-09-03T09:46:18.286Z,26.86
2022-09-03T09:48:44.660Z,26.63
2022-09-03T09:51:11.071Z,26.67
2022-09-03T09:53:37.507Z,26.42
2022-09-03T09:56:03.898Z,26.56
2022-09-03T09:58:30.373Z,26.56
2022-09-03T10:00:56.799Z,27.27
2022-09-03T10:03:23.164Z,28.43
2022-09-03T10:05:49.674Z,28.79
2022-09-03T10:08:16.045Z,29.61
2022-09-03T10:10:42.438Z,29.37
2022-09-03T10:13:08.804Z,29.84
2022-09-03T10:15:35.368Z,29.91
2022-09-03T10:18:01.734Z,30.42
2022-09-03T10:20:28.163Z,30.15
2022-09-03T10:22:56.941Z,30.43
2022-09-03T10:25:20.987Z,30.74
2022-09-03T10:27:47.470Z,30.23
2022-09-03T10:30:14.021Z,30.38
2022-09-03T10:32:42.763Z,30.52
2022-09-03T10:35:06.805Z,30.22
2022-09-03T10:37:33.211Z,30.24
2022-09-03T10:39:59.618Z,30.21
2022-09-03T10:42:25.966Z,30.88
2022-09-03T10:44:52.334Z,31.94
2022-09-03T10:47:18.715Z,31.29
2022-09-03T10:49:45.146Z,30.75
2022-09-03T10:52:11.592Z,30.31
2022-09-03T10:54:38.031Z,30.12
2022-09-03T10:57:04.409Z,30.45
2022-09-03T10:59:30.777Z,30.76
2022-09-03T11:01:57.139Z,31.10
2022-09-03T11:04:23.658Z,30.99
2022-09-03T11:06:50.089Z,31.48
2022-09-03T11:09:16.524Z,30.78
2022-09-03T11:11:42.927Z,31.00
2022-09-03T11:14:09.390Z,30.80
2022-09-03T11:16:35.757Z,30.77
2022-09-03T11:19:02.256Z,30.53
2022-09-03T11:21:28.643Z,29.73
2022-09-03T11:23:55.415Z,29.89
2022-09-03T11:26:21.544Z,30.72
2022-09-03T11:28:47.988Z,31.21
2022-09-03T11:31:14.396Z,30.52
2022-09-03T11:33:40.735Z,30.06
2022-09-03T11:36:07.184Z,29.50
2022-09-03T11:38:33.575Z,29.88
2022-09-03T11:40:59.974Z,29.94
2022-09-03T11:43:26.340Z,30.18
2022-09-03T11:45:52.860Z,30.33
2022-09-03T11:48:19.249Z,31.01
2022-09-03T11:50:45.679Z,30.64
2022-09-03T11:53:12.065Z,30.09
2022-09-03T11:55:43.599Z,29.75
2022-09-03T11:58:04.858Z,29.53
2022-09-03T12:00:31.243Z,30.05
2022-09-03T12:02:59.169Z,30.35
2022-09-03T12:05:24.179Z,30.50
2022-09-03T12:07:50.593Z,30.95
2022-09-03T12:10:16.959Z,31.28
2022-09-03T12:12:43.480Z,30.59
2022-09-03T12:15:09.887Z,30.27
2022-09-03T12:17:36.301Z,30.55
2022-09-03T12:20:02.671Z,30.55
2022-09-03T12:22:29.104Z,30.45
2022-09-03T12:24:55.529Z,31.00
2022-09-03T12:27:21.965Z,31.03
2022-09-03T12:29:48.508Z,30.75
2022-09-03T12:32:14.941Z,30.53
2022-09-03T12:34:41.371Z,30.76
2022-09-03T12:37:07.742Z,30.92
2022-09-03T12:42:00.787Z,30.78
2022-09-03T12:44:27.207Z,30.71
2022-09-03T12:47:33.479Z,29.89
2022-09-03T12:49:35.181Z,29.94
2022-09-03T12:51:50.014Z,30.06
2022-09-03T12:54:12.787Z,29.80
2022-09-03T12:56:42.614Z,29.28
2022-09-03T12:59:05.541Z,28.65
2022-09-03T13:01:32.012Z,28.49
2022-09-03T13:03:58.298Z,28.49
2022-09-03T13:06:24.802Z,28.15
2022-09-03T13:08:51.042Z,27.50
2022-09-03T13:11:17.409Z,27.52
2022-09-03T13:13:43.796Z,27.52
2022-09-03T13:16:10.219Z,27.67
2022-09-03T13:18:36.583Z,27.58
2022-09-03T13:21:02.950Z,27.51
2022-09-03T13:23:29.340Z,27.50
2022-09-03T13:25:55.710Z,27.37
2022-09-03T13:28:23.057Z,27.32
2022-09-03T13:30:49.507Z,27.27
2022-09-03T13:33:17.089Z,27.20
2022-09-03T13:35:43.465Z,27.22
2022-09-03T13:38:09.817Z,27.26
2022-09-03T13:40:36.562Z,27.39
2022-09-03T13:43:02.976Z,27.39
2022-09-03T13:45:29.351Z,27.55
2022-09-03T13:47:55.716Z,27.83
2022-09-03T13:50:22.119Z,28.06
2022-09-03T13:52:48.504Z,28.03
2022-09-03T13:55:14.889Z,28.06
2022-09-03T13:57:41.325Z,28.15
2022-09-03T14:00:07.754Z,27.83
2022-09-03T14:02:34.222Z,27.50
2022-09-03T14:05:00.621Z,27.45
2022-09-03T14:07:27.061Z,27.32
2022-09-03T14:09:53.422Z,27.21
2022-09-03T14:12:19.827Z,27.25
2022-09-03T14:14:46.193Z,27.28
2022-09-03T14:17:12.551Z,27.13
2022-09-03T14:19:39.020Z,26.90
2022-09-03T14:22:05.443Z,26.85
2022-09-03T14:24:31.825Z,26.91
2022-09-03T14:26:58.190Z,26.90
2022-09-03T14:29:24.649Z,27.14
2022-09-03T14:31:51.107Z,27.20
2022-09-03T14:34:17.508Z,27.32
2022-09-03T14:36:43.953Z,27.45
2022-09-03T14:39:10.362Z,27.43
2022-09-03T14:41:36.818Z,27.22
2022-09-03T14:44:03.184Z,27.21
2022-09-03T14:46:29.605Z,27.26
2022-09-03T14:48:56.015Z,27.27
2022-09-03T14:51:22.391Z,27.03
2022-09-03T14:53:48.768Z,26.87
2022-09-03T14:56:15.207Z,26.85
2022-09-03T14:58:41.605Z,26.79
2022-09-03T15:01:08.024Z,26.83
2022-09-03T15:03:34.404Z,26.72
2022-09-03T15:06:00.802Z,26.54
2022-09-03T15:08:27.173Z,26.36
2022-09-03T15:10:56.699Z,26.42
2022-09-03T15:13:19.936Z,26.31
2022-09-03T15:15:46.294Z,26.57
2022-09-03T15:18:12.657Z,26.67
2022-09-03T15:20:39.038Z,26.72
2022-09-03T15:23:05.417Z,26.76
2022-09-03T15:25:31.820Z,26.65
2022-09-03T15:27:58.163Z,26.48
2022-09-03T15:30:24.531Z,26.42
2022-09-03T15:32:50.922Z,26.33
2022-09-03T15:35:18.160Z,26.20
2022-09-03T15:37:43.665Z,25.93
2022-09-03T15:40:10.046Z,25.79
2022-09-03T15:42:36.447Z,25.72
2022-09-03T15:45:02.815Z,25.41
2022-09-03T15:47:29.185Z,25.27
2022-09-03T15:49:55.607Z,25.22
2022-09-03T15:52:21.996Z,25.01
2022-09-03T15:54:48.381Z,24.91
2022-09-03T15:57:14.765Z,24.96
2022-09-03T15:59:41.141Z,24.96
2022-09-03T16:02:07.536Z,24.70
2022-09-03T16:04:33.902Z,24.57
2022-09-03T16:07:00.334Z,24.44
2022-09-03T16:09:26.732Z,24.12
2022-09-03T16:11:53.098Z,23.91
2022-09-03T16:14:19.460Z,24.08
2022-09-03T16:16:46.018Z,24.08
2022-09-03T16:19:12.343Z,24.04
2022-09-03T16:21:38.706Z,24.11
2022-09-03T16:24:05.094Z,24.07
2022-09-03T16:26:31.461Z,24.04
2022-09-03T16:28:57.925Z,24.01
2022-09-03T16:31:24.412Z,23.95
2022-09-03T16:33:50.911Z,23.83
2022-09-03T16:36:17.317Z,23.80
2022-09-03T16:38:43.691Z,23.73
2022-09-03T16:41:10.064Z,23.68
2022-09-03T16:43:41.135Z,23.66
2022-09-03T16:46:02.921Z,23.56
2022-09-03T16:48:29.763Z,23.60
2022-09-03T16:50:56.234Z,23.66
2022-09-03T16:53:22.681Z,23.68
2022-09-03T16:55:49.094Z,23.64
2022-09-03T16:58:15.471Z,23.63
2022-09-03T17:00:41.934Z,23.56
2022-09-03T17:03:08.210Z,23.50
2022-09-03T17:05:34.621Z,23.52
2022-09-03T17:08:01.014Z,23.50
2022-09-03T17:10:27.397Z,23.62
2022-09-03T17:12:53.783Z,23.64
2022-09-03T17:15:20.168Z,23.57
2022-09-03T17:17:46.540Z,23.41
2022-09-03T17:20:12.921Z,23.38
2022-09-03T17:22:39.422Z,23.17
2022-09-03T17:25:05.805Z,23.07
2022-09-03T17:27:32.227Z,23.03
2022-09-03T17:29:58.716Z,22.99
2022-09-03T17:32:25.077Z,22.83
2022-09-03T17:34:51.435Z,22.78
2022-09-03T17:37:17.860Z,22.66
2022-09-03T17:39:44.349Z,22.70
2022-09-03T17:42:10.638Z,22.77
2022-09-03T17:44:37.092Z,22.77
2022-09-03T17:47:03.485Z,22.71
2022-09-03T17:49:29.847Z,22.55
2022-09-03T17:51:56.304Z,22.48
2022-09-03T17:54:22.667Z,22.50
2022-09-03T17:56:49.127Z,22.44
2022-09-03T17:59:15.513Z,22.42
2022-09-03T18:01:41.954Z,22.32
2022-09-03T18:04:08.312Z,22.24
2022-09-03T18:06:34.688Z,22.19
2022-09-03T18:09:01.170Z,22.11
2022-09-03T18:11:27.599Z,22.06
2022-09-03T18:13:53.959Z,22.04
2022-09-03T18:16:20.390Z,22.16
2022-09-03T18:18:46.793Z,22.21
2022-09-03T18:21:25.151Z,22.15
2022-09-03T18:23:39.613Z,22.17
2022-09-03T18:26:05.982Z,22.09
2022-09-03T18:28:32.350Z,22.09
2022-09-03T18:30:58.785Z,22.06
2022-09-03T18:33:25.297Z,22.08
2022-09-03T18:35:51.551Z,22.00
2022-09-03T18:38:17.992Z,21.95
2022-09-03T18:40:44.367Z,21.98
2022-09-03T18:43:10.746Z,21.93
2022-09-03T18:46:07.884Z,21.88
2022-09-03T18:48:08.409Z,21.86
2022-09-03T18:50:29.913Z,21.87
2022-09-03T18:52:56.280Z,21.98
2022-09-03T18:55:22.785Z,21.97
2022-09-03T18:57:49.162Z,21.96
2022-09-03T19:00:15.546Z,21.94
2022-09-03T19:02:42.035Z,21.85
2022-09-03T19:05:08.318Z,21.81
2022-09-03T19:07:34.734Z,21.87
2022-09-03T19:10:01.128Z,21.92
2022-09-03T19:12:27.498Z,21.71
2022-09-03T19:14:53.867Z,21.66
2022-09-03T19:17:20.413Z,21.79
2022-09-03T19:19:46.706Z,21.78
2022-09-03T19:22:13.073Z,21.67
2022-09-03T19:24:39.465Z,21.54
2022-09-03T19:27:18.101Z,21.53
2022-09-03T19:29:32.263Z,21.60
2022-09-03T19:31:58.630Z,21.61
2022-09-03T19:34:25.025Z,21.71
2022-09-03T19:36:51.424Z,21.64
2022-09-03T19:39:17.953Z,21.53
2022-09-03T19:41:44.193Z,21.53
2022-09-03T19:44:10.599Z,21.65
2022-09-03T19:46:36.988Z,21.58
2022-09-03T19:49:03.384Z,21.62
2022-09-03T19:51:29.782Z,21.72
2022-09-03T19:53:56.194Z,21.67
2022-09-03T19:56:22.569Z,21.51
2022-09-03T19:58:48.937Z,21.36
2022-09-03T20:01:15.348Z,21.38
2022-09-03T20:03:41.725Z,21.20
2022-09-03T20:06:11.252Z,21.10
2022-09-03T20:08:34.530Z,21.06
2022-09-03T20:11:00.911Z,21.17
2022-09-03T20:13:27.270Z,21.32
2022-09-03T20:15:53.742Z,21.37
2022-09-03T20:18:20.118Z,21.44
2022-09-03T20:20:46.506Z,21.43
2022-09-03T20:23:12.919Z,21.24
2022-09-03T20:25:39.274Z,21.22
2022-09-03T20:28:05.675Z,21.39
2022-09-03T20:30:32.038Z,21.41
2022-09-03T20:32:58.455Z,21.32
2022-09-03T20:35:24.906Z,21.11
2022-09-03T20:37:51.291Z,21.12
2022-09-03T20:40:17.681Z,21.02
2022-09-03T20:42:44.052Z,21.08
2022-09-03T20:45:10.441Z,21.03
2022-09-03T20:47:36.857Z,20.89
2022-09-03T20:50:03.239Z,20.94
2022-09-03T20:52:29.722Z,20.93
2022-09-03T20:54:56.111Z,20.88
2022-09-03T20:57:22.589Z,21.02
2022-09-03T20:59:48.953Z,21.05
2022-09-03T21:02:15.369Z,20.91
2022-09-03T21:04:41.721Z,20.94
2022-09-03T21:07:08.085Z,20.99
2022-09-03T21:09:34.451Z,20.92
2022-09-03T21:12:00.879Z,20.89
2022-09-03T21:14:27.261Z,20.76
2022-09-03T21:16:53.641Z,20.74
2022-09-03T21:19:20.033Z,20.65
2022-09-03T21:21:46.508Z,20.55
2022-09-03T21:24:12.942Z,20.55
2022-09-03T21:26:39.333Z,20.61
2022-09-03T21:29:05.719Z,20.59
2022-09-03T21:31:32.090Z,20.60
2022-09-03T21:33:58.469Z,20.52
2022-09-03T21:36:24.880Z,20.45
2022-09-03T21:38:51.235Z,20.52
2022-09-03T21:41:17.628Z,20.44
2022-09-03T21:43:43.995Z,20.56
2022-09-03T21:46:10.411Z,20.69
2022-09-03T21:48:36.747Z,20.49
2022-09-03T21:51:03.146Z,20.30
2022-09-03T21:53:29.550Z,20.07
2022-09-03T21:55:55.922Z,19.98
2022-09-03T21:58:22.324Z,19.92
2022-09-03T22:00:48.689Z,20.16
2022-09-03T22:03:15.078Z,20.30
2022-09-03T22:05:41.442Z,20.40
2022-09-03T22:08:07.918Z,20.22
2022-09-03T22:10:34.344Z,20.01
2022-09-03T22:13:00.781Z,20.01
2022-09-03T22:15:27.167Z,19.98
2022-09-03T22:17:53.526Z,19.89
2022-09-03T22:20:19.896Z,20.01
2022-09-03T22:22:46.262Z,20.12
2022-09-03T22:25:12.744Z,20.24
2022-09-03T22:27:39.117Z,20.23
2022-09-03T22:30:05.525Z,20.16
2022-09-03T22:32:31.909Z,20.23
2022-09-03T22:34:58.296Z,20.24
2022-09-03T22:37:24.678Z,20.22
2022-09-03T22:39:51.066Z,20.20
2022-09-03T22:42:17.440Z,20.31
2022-09-03T22:44:43.905Z,20.19
2022-09-03T22:47:10.267Z,20.03
2022-09-03T22:49:36.669Z,19.96
2022-09-03T22:52:03.064Z,20.05
2022-09-03T22:54:29.533Z,19.89
2022-09-03T22:56:55.911Z,19.57
2022-09-03T22:59:22.404Z,19.50
2022-09-03T23:01:48.765Z,19.48
2022-09-03T23:04:15.145Z,19.58
2022-09-03T23:06:41.496Z,19.47
2022-09-03T23:09:07.926Z,19.34
2022-09-03T23:11:34.358Z,19.33
2022-09-03T23:14:00.725Z,19.44
2022-09-03T23:16:27.135Z,19.52
2022-09-03T23:18:53.496Z,19.57
2022-09-03T23:21:19.856Z,19.54
2022-09-03T23:23:46.220Z,19.60
2022-09-03T23:26:12.625Z,19.60
2022-09-03T23:28:39.081Z,19.68
2022-09-03T23:31:05.461Z,19.85
2022-09-03T23:33:31.947Z,19.90
2022-09-03T23:35:58.303Z,19.70
2022-09-03T23:38:24.832Z,19.69
2022-09-03T23:40:51.077Z,19.67
2022-09-03T23:43:17.468Z,19.54
2022-09-03T23:45:43.939Z,19.42
2022-09-03T23:48:10.270Z,19.12
2022-09-03T23:50:36.627Z,18.86
2022-09-03T23:53:03.011Z,18.72
2022-09-03T23:55:29.419Z,18.58
2022-09-03T23:57:55.787Z,18.62
